createdAt,value
2022-11-02T00:01:44.358Z,10.54
2022-11-02T00:06:48.604Z,10.56
2022-11-02T00:11:52.248Z,10.57
2022-11-02T00:16:56.095Z,10.62
2022-11-02T00:22:01.505Z,10.67
2022-11-02T00:27:05.787Z,10.69
2022-11-02T00:32:09.752Z,10.69
2022-11-02T00:37:13.267Z,10.69
2022-11-02T00:42:16.774Z,10.66
2022-11-02T00:47:20.951Z,10.66
2022-11-02T00:52:24.637Z,10.65
2022-11-02T00:57:28.439Z,10.64
2022-11-02T01:02:33.575Z,10.61
2022-11-02T01:07:37.622Z,10.59
2022-11-02T01:12:42.009Z,10.60
2022-11-02T01:17:46.083Z,10.60
2022-11-02T01:22:49.911Z,10.58
2022-11-02T01:27:54.091Z,10.57
2022-11-02T01:32:58.172Z,10.56
2022-11-02T01:38:01.946Z,10.56
2022-11-02T01:43:24.204Z,10.57
2022-11-02T01:48:31.909Z,10.57
2022-11-02T01:53:37.984Z,10.55
2022-11-02T01:58:43.001Z,10.55
2022-11-02T02:03:48.001Z,10.56
2022-11-02T02:08:54.092Z,10.57
2022-11-02T02:14:00.680Z,10.60
2022-11-02T02:19:16.217Z,10.63
2022-11-02T02:24:44.805Z,10.64
2022-11-02T02:29:59.110Z,10.63
2022-11-02T02:35:11.774Z,10.61
2022-11-02T02:40:20.398Z,10.60
2022-11-02T02:45:29.958Z,10.58
2022-11-02T02:50:38.590Z,10.56
2022-11-02T02:55:45.939Z,10.54
2022-11-02T03:00:49.708Z,10.50
2022-11-02T03:06:04.320Z,10.45
2022-11-02T03:11:14.468Z,10.39
2022-11-02T03:16:35.105Z,10.32
2022-11-02T03:21:42.921Z,10.27
2022-11-02T03:41:41.052Z,10.21
2022-11-02T03:46:51.233Z,10.13
2022-11-02T03:52:01.602Z,10.01
2022-11-02T03:57:11.786Z,9.96
2022-11-02T04:02:20.320Z,9.89
2022-11-02T04:07:58.435Z,9.82
2022-11-02T04:13:24.507Z,9.74
2022-11-02T04:18:48.871Z,9.69
2022-11-02T04:24:13.891Z,9.66
2022-11-02T04:29:21.088Z,9.57
2022-11-02T04:34:28.053Z,9.46
2022-11-02T04:39:33.289Z,9.42
2022-11-02T04:44:40.646Z,9.37
2022-11-02T04:49:45.868Z,9.30
2022-11-02T04:54:54.040Z,9.22
2022-11-02T05:08:45.229Z,9.21
2022-11-02T05:13:52.328Z,9.21
2022-11-02T05:19:07.042Z,9.23
2022-11-02T05:28:30.442Z,9.34
2022-11-02T05:33:38.225Z,9.37
2022-11-02T05:38:45.282Z,9.40
2022-11-02T05:43:52.632Z,9.45
2022-11-02T05:48:59.744Z,9.49
2022-11-02T05:54:07.443Z,9.52
2022-11-02T05:59:14.586Z,9.57
2022-11-02T06:04:21.998Z,9.62
2022-11-02T06:09:29.072Z,9.64
2022-11-02T06:14:34.659Z,9.71
2022-11-02T06:19:42.185Z,9.81
2022-11-02T06:24:49.271Z,9.86
2022-11-02T06:29:56.117Z,9.86
2022-11-02T06:35:03.269Z,9.90
2022-11-02T06:40:12.513Z,9.96
2022-11-02T06:45:20.530Z,10.02
2022-11-02T06:50:28.238Z,10.04
2022-11-02T06:55:35.190Z,10.07
2022-11-02T07:00:42.270Z,10.11
2022-11-02T07:05:55.275Z,10.18
2022-11-02T07:11:02.492Z,10.24
2022-11-02T07:16:10.189Z,10.32
2022-11-02T07:21:17.499Z,10.42
2022-11-02T07:26:27.073Z,10.51
2022-11-02T07:31:33.865Z,10.62
2022-11-02T07:36:39.692Z,10.73
2022-11-02T07:41:51.634Z,10.86
2022-11-02T07:46:59.024Z,10.96
2022-11-02T07:52:06.403Z,11.08
2022-11-02T07:57:13.632Z,11.22
2022-11-02T08:02:21.107Z,11.37
2022-11-02T08:07:28.887Z,11.51
2022-11-02T08:12:37.206Z,11.67
2022-11-02T08:17:44.361Z,11.83
2022-11-02T08:22:52.514Z,12.00
2022-11-02T08:28:02.290Z,12.14
2022-11-02T08:33:13.622Z,12.26
2022-11-02T08:38:22.875Z,12.41
2022-11-02T08:43:30.080Z,12.55
2022-11-02T08:48:38.261Z,12.64
2022-11-02T08:53:51.285Z,12.76
2022-11-02T08:58:58.849Z,12.87
2022-11-02T09:04:06.663Z,12.93
2022-11-02T09:09:14.173Z,12.97
2022-11-02T09:14:22.079Z,13.03
2022-11-02T09:19:29.673Z,13.13
2022-11-02T09:24:37.009Z,13.24
2022-11-02T09:29:44.412Z,13.34
2022-11-02T09:34:52.440Z,13.42
2022-11-02T09:39:59.670Z,13.52
2022-11-02T09:45:13.340Z,13.66
2022-11-02T09:50:24.530Z,13.82
2022-11-02T09:55:37.058Z,13.96
2022-11-02T10:00:47.278Z,14.07
2022-11-02T10:05:59.232Z,14.17
2022-11-02T10:11:20.330Z,14.30
2022-11-02T10:16:35.120Z,14.42
2022-11-02T10:21:47.921Z,14.49
2022-11-02T10:26:58.396Z,14.55
2022-11-02T10:32:06.422Z,14.61
2022-11-02T10:37:34.819Z,14.69
2022-11-02T10:42:57.181Z,14.79
2022-11-02T10:48:12.588Z,14.87
2022-11-02T10:59:00.654Z,15.02
2022-11-02T11:04:21.487Z,15.09
2022-11-02T11:09:30.722Z,15.17
2022-11-02T11:20:36.861Z,15.34
2022-11-02T11:25:45.148Z,15.45
2022-11-02T11:31:03.254Z,15.51
2022-11-02T11:36:12.543Z,15.58
2022-11-02T11:41:20.679Z,15.63
2022-11-02T11:46:44.102Z,15.60
2022-11-02T11:51:53.780Z,15.55
2022-11-02T11:57:18.115Z,15.56
2022-11-02T12:02:27.926Z,15.51
2022-11-02T12:08:06.991Z,15.46
2022-11-02T12:13:27.440Z,15.42
2022-11-02T12:19:00.635Z,15.42
2022-11-02T12:24:22.354Z,15.45
2022-11-02T12:29:49.253Z,15.43
2022-11-02T12:35:28.567Z,15.38
2022-11-02T12:40:50.874Z,15.41
2022-11-02T12:46:03.399Z,15.49
2022-11-02T12:51:16.009Z,15.56
2022-11-02T12:56:28.256Z,15.64
2022-11-02T13:01:41.233Z,15.74
2022-11-02T13:06:51.656Z,15.80
2022-11-02T13:12:03.687Z,15.81
2022-11-02T13:17:17.415Z,15.82
2022-11-02T13:22:33.410Z,15.78
2022-11-02T13:27:49.318Z,15.74
2022-11-02T13:43:58.721Z,15.58
2022-11-02T13:49:14.544Z,15.55
2022-11-02T13:54:27.417Z,15.55
2022-11-02T13:59:43.002Z,15.55
2022-11-02T14:04:52.427Z,15.55
2022-11-02T14:10:06.486Z,15.53
2022-11-02T14:15:48.067Z,15.51
2022-11-02T14:20:56.309Z,15.49
2022-11-02T14:26:03.885Z,15.44
2022-11-02T14:31:41.020Z,15.37
2022-11-02T14:37:05.375Z,15.29
2022-11-02T14:42:32.311Z,15.19
2022-11-02T14:47:39.942Z,15.07
2022-11-02T14:53:00.714Z,14.96
2022-11-02T14:58:16.946Z,14.85
2022-11-02T15:03:34.414Z,14.71
2022-11-02T15:08:53.481Z,14.55
2022-11-02T15:14:01.456Z,14.40
2022-11-02T15:19:44.014Z,14.28
2022-11-02T15:24:53.339Z,14.17
2022-11-02T15:30:02.904Z,14.10
2022-11-02T15:35:20.348Z,14.00
2022-11-02T15:40:30.714Z,13.89
2022-11-02T15:45:57.763Z,13.76
2022-11-02T15:51:21.523Z,13.60
2022-11-02T15:56:44.720Z,13.48
2022-11-02T16:02:10.918Z,13.35
2022-11-02T16:07:19.167Z,13.25
2022-11-02T16:12:31.891Z,13.19
2022-11-02T16:17:40.268Z,13.12
2022-11-02T16:28:23.300Z,13.03
2022-11-02T16:33:33.206Z,12.93
2022-11-02T16:38:47.153Z,12.83
2022-11-02T16:43:55.769Z,12.71
2022-11-02T16:49:19.293Z,12.62
2022-11-02T16:54:42.176Z,12.59
2022-11-02T16:59:55.893Z,12.55
2022-11-02T17:05:06.452Z,12.46
2022-11-02T17:10:25.574Z,12.39
2022-11-02T17:15:34.298Z,12.34
2022-11-02T17:20:42.195Z,12.30
2022-11-02T17:29:48.098Z,12.27
2022-11-02T17:34:54.789Z,12.25
2022-11-02T17:40:02.359Z,12.22
2022-11-02T17:45:28.032Z,12.18
2022-11-02T17:50:33.780Z,12.12
2022-11-02T17:55:37.636Z,12.08
2022-11-02T18:00:41.496Z,12.03
2022-11-02T18:05:49.467Z,11.98
2022-11-02T18:10:54.709Z,11.90
2022-11-02T18:15:58.486Z,11.84
2022-11-02T18:21:02.262Z,11.76
2022-11-02T18:26:07.443Z,11.70
2022-11-02T18:31:11.418Z,11.61
2022-11-02T18:36:15.553Z,11.57
2022-11-02T18:41:30.395Z,11.55
2022-11-02T18:46:35.095Z,11.50
2022-11-02T18:51:42.319Z,11.45
2022-11-02T18:56:46.514Z,11.40
2022-11-02T19:01:51.030Z,11.34
2022-11-02T19:07:16.169Z,11.29
2022-11-02T19:12:26.873Z,11.26
2022-11-02T19:17:30.498Z,11.25
2022-11-02T19:22:34.400Z,11.24
2022-11-02T19:27:38.391Z,11.23
2022-11-02T19:32:42.391Z,11.22
2022-11-02T19:37:46.245Z,11.17
2022-11-02T19:42:50.415Z,11.09
2022-11-02T19:47:54.198Z,11.06
2022-11-02T19:52:59.483Z,11.08
2022-11-02T19:58:03.458Z,11.06
2022-11-02T20:03:07.570Z,11.04
2022-11-02T20:08:11.334Z,11.00
2022-11-02T20:13:15.873Z,10.95
2022-11-02T20:18:20.487Z,10.89
2022-11-02T20:27:55.326Z,10.91
2022-11-02T20:33:03.161Z,10.84
2022-11-02T20:38:11.730Z,10.71
2022-11-02T20:43:19.959Z,10.62
2022-11-02T20:48:27.219Z,10.58
2022-11-02T20:53:34.689Z,10.58
2022-11-02T20:58:41.719Z,10.58
2022-11-02T21:03:48.857Z,10.58
2022-11-02T21:08:57.097Z,10.56
2022-11-02T21:14:04.683Z,10.53
2022-11-02T21:19:12.082Z,10.49
2022-11-02T21:24:19.687Z,10.43
2022-11-02T21:29:27.471Z,10.41
2022-11-02T21:34:34.910Z,10.35
2022-11-02T21:39:42.208Z,10.26
2022-11-02T21:44:49.946Z,10.13
2022-11-02T21:49:57.747Z,9.98
2022-11-02T21:55:05.354Z,9.83
2022-11-02T22:00:14.974Z,9.71
2022-11-02T22:15:12.841Z,9.60
2022-11-02T22:20:20.895Z,9.55
2022-11-02T22:26:25.517Z,9.58
2022-11-02T22:31:34.892Z,9.57
2022-11-02T22:36:44.179Z,9.62
2022-11-02T22:41:51.630Z,9.67
2022-11-02T22:46:58.913Z,9.73
2022-11-02T22:52:06.733Z,9.69
2022-11-02T22:57:14.336Z,9.65
2022-11-02T23:02:22.236Z,9.57
2022-11-02T23:07:29.970Z,9.35
2022-11-02T23:12:37.481Z,9.11
2022-11-02T23:17:44.860Z,8.88
2022-11-02T23:23:09.804Z,8.72
2022-11-02T23:28:34.763Z,8.60
2022-11-02T23:33:42.227Z,8.45
2022-11-02T23:39:08.330Z,8.33
2022-11-02T23:44:16.014Z,8.19
2022-11-02T23:49:24.316Z,8.12
2022-11-02T23:54:49.643Z,8.05
2022-11-02T23:59:57.051Z,7.89
